sensor_id;sensor_type;location;lat;lon;timestamp;P1;durP1;ratioP1;P2;durP2;ratioP2
11131;SDS011;5620;53.570;9.718;2023-07-22T00:00:05;5.20;;;3.73;;
11131;SDS011;5620;53.570;9.718;2023-07-22T00:02:31;5.03;;;4.00;;
11131;SDS011;5620;53.570;9.718;2023-07-22T00:05:00;5.07;;;3.72;;
11131;SDS011;5620;53.570;9.718;2023-07-22T00:07:26;3.93;;;3.63;;
11131;SDS011;5620;53.570;9.718;2023-07-22T00:09:55;4.32;;;3.70;;
11131;SDS011;5620;53.570;9.718;2023-07-22T00:12:22;4.45;;;3.92;;
11131;SDS011;5620;53.570;9.718;2023-07-22T00:14:49;5.78;;;4.05;;
11131;SDS011;5620;53.570;9.718;2023-07-22T00:17:16;4.37;;;3.83;;
11131;SDS011;5620;53.570;9.718;2023-07-22T00:19:42;6.68;;;4.50;;
11131;SDS011;5620;53.570;9.718;2023-07-22T00:22:09;4.20;;;3.65;;
11131;SDS011;5620;53.570;9.718;2023-07-22T00:24:36;4.20;;;3.90;;
11131;SDS011;5620;53.570;9.718;2023-07-22T00:27:04;7.15;;;4.40;;
11131;SDS011;5620;53.570;9.718;2023-07-22T00:29:31;14.13;;;5.28;;
11131;SDS011;5620;53.570;9.718;2023-07-22T00:31:57;6.32;;;4.82;;
11131;SDS011;5620;53.570;9.718;2023-07-22T00:34:24;6.68;;;4.10;;
11131;SDS011;5620;53.570;9.718;2023-07-22T00:36:51;5.63;;;4.63;;
11131;SDS011;5620;53.570;9.718;2023-07-22T00:39:17;4.57;;;4.18;;
11131;SDS011;5620;53.570;9.718;2023-07-22T00:41:46;5.20;;;4.70;;
11131;SDS011;5620;53.570;9.718;2023-07-22T00:44:13;4.32;;;3.95;;
11131;SDS011;5620;53.570;9.718;2023-07-22T00:46:39;5.10;;;4.60;;
11131;SDS011;5620;53.570;9.718;2023-07-22T00:49:06;5.40;;;4.28;;
11131;SDS011;5620;53.570;9.718;2023-07-22T00:51:34;13.70;;;4.32;;
11131;SDS011;5620;53.570;9.718;2023-07-22T00:54:02;8.03;;;4.37;;
11131;SDS011;5620;53.570;9.718;2023-07-22T00:56:31;6.40;;;3.85;;
11131;SDS011;5620;53.570;9.718;2023-07-22T00:59:03;6.28;;;4.43;;
11131;SDS011;5620;53.570;9.718;2023-07-22T01:01:30;6.25;;;4.28;;
11131;SDS011;5620;53.570;9.718;2023-07-22T01:03:56;4.73;;;4.00;;
11131;SDS011;5620;53.570;9.718;2023-07-22T01:06:24;7.55;;;4.68;;
11131;SDS011;5620;53.570;9.718;2023-07-22T01:08:50;10.45;;;4.82;;
11131;SDS011;5620;53.570;9.718;2023-07-22T01:11:17;9.00;;;4.23;;
11131;SDS011;5620;53.570;9.718;2023-07-22T01:13:44;4.70;;;3.97;;
11131;SDS011;5620;53.570;9.718;2023-07-22T01:16:11;4.18;;;3.78;;
11131;SDS011;5620;53.570;9.718;2023-07-22T01:18:39;4.18;;;3.78;;
11131;SDS011;5620;53.570;9.718;2023-07-22T01:21:05;5.97;;;4.70;;
11131;SDS011;5620;53.570;9.718;2023-07-22T01:23:35;4.77;;;4.17;;
11131;SDS011;5620;53.570;9.718;2023-07-22T01:26:04;4.35;;;3.95;;
11131;SDS011;5620;53.570;9.718;2023-07-22T01:28:35;6.43;;;4.22;;
11131;SDS011;5620;53.570;9.718;2023-07-22T01:31:03;5.57;;;3.90;;
11131;SDS011;5620;53.570;9.718;2023-07-22T01:33:29;4.82;;;4.00;;
11131;SDS011;5620;53.570;9.718;2023-07-22T01:35:58;4.77;;;4.37;;
11131;SDS011;5620;53.570;9.718;2023-07-22T01:38:26;7.50;;;3.72;;
11131;SDS011;5620;53.570;9.718;2023-07-22T01:40:53;8.35;;;3.78;;
11131;SDS011;5620;53.570;9.718;2023-07-22T01:43:20;7.63;;;4.10;;
11131;SDS011;5620;53.570;9.718;2023-07-22T01:45:46;6.32;;;3.95;;
11131;SDS011;5620;53.570;9.718;2023-07-22T01:48:12;4.67;;;4.03;;
11131;SDS011;5620;53.570;9.718;2023-07-22T01:50:40;4.72;;;3.50;;
11131;SDS011;5620;53.570;9.718;2023-07-22T01:53:08;4.60;;;3.95;;
11131;SDS011;5620;53.570;9.718;2023-07-22T01:55:36;8.25;;;4.28;;
11131;SDS011;5620;53.570;9.718;2023-07-22T01:58:03;3.97;;;3.67;;
11131;SDS011;5620;53.570;9.718;2023-07-22T02:00:30;8.38;;;3.88;;
11131;SDS011;5620;53.570;9.718;2023-07-22T02:02:57;7.93;;;4.20;;
11131;SDS011;5620;53.570;9.718;2023-07-22T02:05:25;8.80;;;4.22;;
11131;SDS011;5620;53.570;9.718;2023-07-22T02:07:51;4.30;;;4.00;;
11131;SDS011;5620;53.570;9.718;2023-07-22T02:10:18;7.78;;;4.65;;
11131;SDS011;5620;53.570;9.718;2023-07-22T02:12:44;12.30;;;4.22;;
11131;SDS011;5620;53.570;9.718;2023-07-22T02:15:12;7.67;;;4.40;;
11131;SDS011;5620;53.570;9.718;2023-07-22T02:17:39;5.72;;;4.18;;
11131;SDS011;5620;53.570;9.718;2023-07-22T02:20:07;7.90;;;4.30;;
11131;SDS011;5620;53.570;9.718;2023-07-22T02:22:34;7.40;;;4.50;;
11131;SDS011;5620;53.570;9.718;2023-07-22T02:25:01;6.20;;;4.17;;
11131;SDS011;5620;53.570;9.718;2023-07-22T02:27:26;5.38;;;4.13;;
11131;SDS011;5620;53.570;9.718;2023-07-22T02:29:53;11.97;;;4.20;;
11131;SDS011;5620;53.570;9.718;2023-07-22T02:32:20;7.30;;;4.38;;
11131;SDS011;5620;53.570;9.718;2023-07-22T02:34:47;5.72;;;4.47;;
11131;SDS011;5620;53.570;9.718;2023-07-22T02:37:14;4.57;;;4.18;;
11131;SDS011;5620;53.570;9.718;2023-07-22T02:39:41;7.27;;;4.87;;
11131;SDS011;5620;53.570;9.718;2023-07-22T02:42:08;9.98;;;3.90;;
11131;SDS011;5620;53.570;9.718;2023-07-22T02:44:35;5.80;;;4.47;;
11131;SDS011;5620;53.570;9.718;2023-07-22T02:47:03;7.63;;;4.15;;
11131;SDS011;5620;53.570;9.718;2023-07-22T02:49:32;9.23;;;4.15;;
11131;SDS011;5620;53.570;9.718;2023-07-22T02:52:01;6.37;;;4.57;;
11131;SDS011;5620;53.570;9.718;2023-07-22T02:54:28;8.77;;;4.80;;
11131;SDS011;5620;53.570;9.718;2023-07-22T02:56:55;4.72;;;4.18;;
11131;SDS011;5620;53.570;9.718;2023-07-22T02:59:23;8.00;;;4.07;;
11131;SDS011;5620;53.570;9.718;2023-07-22T03:01:49;4.97;;;4.57;;
11131;SDS011;5620;53.570;9.718;2023-07-22T03:04:17;4.40;;;4.00;;
11131;SDS011;5620;53.570;9.718;2023-07-22T03:06:43;10.30;;;3.67;;
11131;SDS011;5620;53.570;9.718;2023-07-22T03:09:11;8.80;;;4.13;;
11131;SDS011;5620;53.570;9.718;2023-07-22T03:11:38;7.22;;;4.28;;
11131;SDS011;5620;53.570;9.718;2023-07-22T03:14:05;4.78;;;4.30;;
11131;SDS011;5620;53.570;9.718;2023-07-22T03:16:31;7.20;;;3.33;;
11131;SDS011;5620;53.570;9.718;2023-07-22T03:18:59;7.32;;;4.65;;
11131;SDS011;5620;53.570;9.718;2023-07-22T03:21:26;4.95;;;3.17;;
11131;SDS011;5620;53.570;9.718;2023-07-22T03:23:53;5.07;;;4.50;;
11131;SDS011;5620;53.570;9.718;2023-07-22T03:26:20;5.77;;;4.23;;
11131;SDS011;5620;53.570;9.718;2023-07-22T03:28:46;5.53;;;4.03;;
11131;SDS011;5620;53.570;9.718;2023-07-22T03:31:12;3.80;;;3.50;;
11131;SDS011;5620;53.570;9.718;2023-07-22T03:33:39;6.13;;;4.47;;
11131;SDS011;5620;53.570;9.718;2023-07-22T03:36:05;14.60;;;4.50;;
11131;SDS011;5620;53.570;9.718;2023-07-22T03:38:31;4.68;;;4.13;;
11131;SDS011;5620;53.570;9.718;2023-07-22T03:40:58;5.23;;;4.17;;
11131;SDS011;5620;53.570;9.718;2023-07-22T03:43:24;6.05;;;3.50;;
11131;SDS011;5620;53.570;9.718;2023-07-22T03:45:51;8.23;;;3.70;;
11131;SDS011;5620;53.570;9.718;2023-07-22T03:48:18;4.35;;;3.95;;
11131;SDS011;5620;53.570;9.718;2023-07-22T03:50:45;5.93;;;4.60;;
11131;SDS011;5620;53.570;9.718;2023-07-22T03:53:12;7.15;;;4.68;;
11131;SDS011;5620;53.570;9.718;2023-07-22T03:55:39;11.52;;;3.80;;
11131;SDS011;5620;53.570;9.718;2023-07-22T03:58:06;4.00;;;3.70;;
11131;SDS011;5620;53.570;9.718;2023-07-22T04:00:33;8.90;;;4.18;;
11131;SDS011;5620;53.570;9.718;2023-07-22T04:03:01;7.60;;;3.95;;
11131;SDS011;5620;53.570;9.718;2023-07-22T04:05:29;11.83;;;3.60;;
11131;SDS011;5620;53.570;9.718;2023-07-22T04:07:57;12.07;;;4.28;;
11131;SDS011;5620;53.570;9.718;2023-07-22T04:10:24;4.53;;;4.13;;
11131;SDS011;5620;53.570;9.718;2023-07-22T04:12:50;5.03;;;3.83;;
11131;SDS011;5620;53.570;9.718;2023-07-22T04:15:17;7.63;;;3.60;;
11131;SDS011;5620;53.570;9.718;2023-07-22T04:17:45;7.53;;;3.60;;
11131;SDS011;5620;53.570;9.718;2023-07-22T04:20:11;8.98;;;3.50;;
11131;SDS011;5620;53.570;9.718;2023-07-22T04:22:38;5.80;;;3.97;;
11131;SDS011;5620;53.570;9.718;2023-07-22T04:25:05;10.57;;;4.03;;
11131;SDS011;5620;53.570;9.718;2023-07-22T04:27:31;7.38;;;3.75;;
11131;SDS011;5620;53.570;9.718;2023-07-22T04:29:57;3.53;;;3.22;;
11131;SDS011;5620;53.570;9.718;2023-07-22T04:32:24;5.73;;;3.77;;
11131;SDS011;5620;53.570;9.718;2023-07-22T04:34:51;7.57;;;4.90;;
11131;SDS011;5620;53.570;9.718;2023-07-22T04:37:18;8.77;;;3.90;;
11131;SDS011;5620;53.570;9.718;2023-07-22T04:39:48;8.00;;;4.50;;
11131;SDS011;5620;53.570;9.718;2023-07-22T04:42:15;4.03;;;3.42;;
11131;SDS011;5620;53.570;9.718;2023-07-22T04:44:41;10.57;;;4.63;;
11131;SDS011;5620;53.570;9.718;2023-07-22T04:47:09;8.27;;;3.85;;
11131;SDS011;5620;53.570;9.718;2023-07-22T04:49:39;6.13;;;3.47;;
11131;SDS011;5620;53.570;9.718;2023-07-22T04:52:07;7.38;;;2.72;;
11131;SDS011;5620;53.570;9.718;2023-07-22T04:54:34;5.82;;;3.35;;
11131;SDS011;5620;53.570;9.718;2023-07-22T04:57:02;6.22;;;3.13;;
11131;SDS011;5620;53.570;9.718;2023-07-22T04:59:29;3.22;;;2.72;;
11131;SDS011;5620;53.570;9.718;2023-07-22T05:01:55;5.63;;;3.87;;
11131;SDS011;5620;53.570;9.718;2023-07-22T05:04:23;7.28;;;3.80;;
11131;SDS011;5620;53.570;9.718;2023-07-22T05:06:51;4.57;;;3.00;;
11131;SDS011;5620;53.570;9.718;2023-07-22T05:09:20;3.97;;;3.63;;
11131;SDS011;5620;53.570;9.718;2023-07-22T05:11:48;7.18;;;3.70;;
11131;SDS011;5620;53.570;9.718;2023-07-22T05:14:16;10.52;;;5.43;;
11131;SDS011;5620;53.570;9.718;2023-07-22T05:16:43;8.57;;;4.60;;
11131;SDS011;5620;53.570;9.718;2023-07-22T05:19:11;6.15;;;3.88;;
11131;SDS011;5620;53.570;9.718;2023-07-22T05:21:38;3.58;;;3.28;;
11131;SDS011;5620;53.570;9.718;2023-07-22T05:24:06;5.25;;;3.45;;
11131;SDS011;5620;53.570;9.718;2023-07-22T05:26:33;4.13;;;2.90;;
11131;SDS011;5620;53.570;9.718;2023-07-22T05:29:00;5.47;;;4.97;;
11131;SDS011;5620;53.570;9.718;2023-07-22T05:31:28;6.25;;;5.68;;
11131;SDS011;5620;53.570;9.718;2023-07-22T05:33:55;8.27;;;4.70;;
11131;SDS011;5620;53.570;9.718;2023-07-22T05:36:24;7.93;;;3.72;;
11131;SDS011;5620;53.570;9.718;2023-07-22T05:38:50;8.32;;;3.40;;
11131;SDS011;5620;53.570;9.718;2023-07-22T05:41:19;6.25;;;3.35;;
11131;SDS011;5620;53.570;9.718;2023-07-22T05:43:46;5.45;;;3.30;;
11131;SDS011;5620;53.570;9.718;2023-07-22T05:46:14;8.63;;;3.72;;
11131;SDS011;5620;53.570;9.718;2023-07-22T05:48:42;3.55;;;2.60;;
11131;SDS011;5620;53.570;9.718;2023-07-22T05:51:09;4.15;;;3.65;;
11131;SDS011;5620;53.570;9.718;2023-07-22T05:53:35;2.95;;;2.72;;
11131;SDS011;5620;53.570;9.718;2023-07-22T05:56:02;4.18;;;2.15;;
11131;SDS011;5620;53.570;9.718;2023-07-22T05:58:29;3.30;;;2.30;;
11131;SDS011;5620;53.570;9.718;2023-07-22T06:00:58;3.97;;;2.22;;
11131;SDS011;5620;53.570;9.718;2023-07-22T06:03:25;4.25;;;2.67;;
11131;SDS011;5620;53.570;9.718;2023-07-22T06:05:53;9.73;;;4.00;;
11131;SDS011;5620;53.570;9.718;2023-07-22T06:08:20;4.43;;;2.42;;
11131;SDS011;5620;53.570;9.718;2023-07-22T06:10:45;3.10;;;2.67;;
11131;SDS011;5620;53.570;9.718;2023-07-22T06:13:11;8.88;;;2.42;;
11131;SDS011;5620;53.570;9.718;2023-07-22T06:15:38;3.88;;;3.50;;
11131;SDS011;5620;53.570;9.718;2023-07-22T06:18:03;5.65;;;3.38;;
11131;SDS011;5620;53.570;9.718;2023-07-22T06:20:30;6.37;;;2.90;;
11131;SDS011;5620;53.570;9.718;2023-07-22T06:22:57;3.20;;;2.88;;
11131;SDS011;5620;53.570;9.718;2023-07-22T06:25:24;5.68;;;2.90;;
11131;SDS011;5620;53.570;9.718;2023-07-22T06:27:52;6.10;;;3.00;;
11131;SDS011;5620;53.570;9.718;2023-07-22T06:30:20;4.33;;;2.87;;
11131;SDS011;5620;53.570;9.718;2023-07-22T06:32:46;5.97;;;2.60;;
11131;SDS011;5620;53.570;9.718;2023-07-22T06:35:13;4.85;;;2.80;;
11131;SDS011;5620;53.570;9.718;2023-07-22T06:37:39;6.45;;;2.55;;
11131;SDS011;5620;53.570;9.718;2023-07-22T06:40:05;5.53;;;2.60;;
11131;SDS011;5620;53.570;9.718;2023-07-22T06:42:33;3.08;;;1.88;;
11131;SDS011;5620;53.570;9.718;2023-07-22T06:45:00;4.97;;;2.30;;
11131;SDS011;5620;53.570;9.718;2023-07-22T06:47:29;4.82;;;2.22;;
11131;SDS011;5620;53.570;9.718;2023-07-22T06:49:55;3.33;;;1.83;;
11131;SDS011;5620;53.570;9.718;2023-07-22T06:52:30;5.65;;;2.13;;
11131;SDS011;5620;53.570;9.718;2023-07-22T06:54:59;3.30;;;1.95;;
11131;SDS011;5620;53.570;9.718;2023-07-22T06:57:29;3.17;;;1.83;;
11131;SDS011;5620;53.570;9.718;2023-07-22T07:00:14;3.42;;;1.75;;
11131;SDS011;5620;53.570;9.718;2023-07-22T07:02:41;3.07;;;2.17;;
11131;SDS011;5620;53.570;9.718;2023-07-22T07:05:09;3.97;;;1.60;;
11131;SDS011;5620;53.570;9.718;2023-07-22T07:07:38;6.13;;;2.10;;
11131;SDS011;5620;53.570;9.718;2023-07-22T07:10:06;5.70;;;1.40;;
11131;SDS011;5620;53.570;9.718;2023-07-22T07:12:33;8.85;;;1.77;;
11131;SDS011;5620;53.570;9.718;2023-07-22T07:14:59;4.63;;;1.90;;
11131;SDS011;5620;53.570;9.718;2023-07-22T07:17:28;1.60;;;0.95;;
11131;SDS011;5620;53.570;9.718;2023-07-22T07:19:56;3.25;;;1.35;;
11131;SDS011;5620;53.570;9.718;2023-07-22T07:22:23;2.10;;;1.15;;
11131;SDS011;5620;53.570;9.718;2023-07-22T07:24:51;2.95;;;1.08;;
11131;SDS011;5620;53.570;9.718;2023-07-22T07:27:17;1.20;;;1.10;;
11131;SDS011;5620;53.570;9.718;2023-07-22T07:29:44;1.70;;;1.20;;
11131;SDS011;5620;53.570;9.718;2023-07-22T07:32:11;3.08;;;1.52;;
11131;SDS011;5620;53.570;9.718;2023-07-22T07:34:39;1.73;;;1.25;;
11131;SDS011;5620;53.570;9.718;2023-07-22T07:37:05;3.10;;;1.77;;
11131;SDS011;5620;53.570;9.718;2023-07-22T07:39:32;2.87;;;1.00;;
11131;SDS011;5620;53.570;9.718;2023-07-22T07:41:58;5.13;;;1.90;;
11131;SDS011;5620;53.570;9.718;2023-07-22T07:44:26;1.93;;;0.97;;
11131;SDS011;5620;53.570;9.718;2023-07-22T07:46:54;1.10;;;0.65;;
11131;SDS011;5620;53.570;9.718;2023-07-22T07:49:23;1.33;;;1.08;;
11131;SDS011;5620;53.570;9.718;2023-07-22T07:51:49;1.20;;;1.00;;
11131;SDS011;5620;53.570;9.718;2023-07-22T07:54:16;2.38;;;1.10;;
11131;SDS011;5620;53.570;9.718;2023-07-22T07:56:44;1.70;;;0.97;;
11131;SDS011;5620;53.570;9.718;2023-07-22T07:59:11;5.78;;;2.60;;
11131;SDS011;5620;53.570;9.718;2023-07-22T08:01:39;3.40;;;1.10;;
11131;SDS011;5620;53.570;9.718;2023-07-22T08:04:04;3.78;;;1.33;;
11131;SDS011;5620;53.570;9.718;2023-07-22T08:06:30;6.27;;;2.80;;
11131;SDS011;5620;53.570;9.718;2023-07-22T08:08:57;1.90;;;1.17;;
11131;SDS011;5620;53.570;9.718;2023-07-22T08:11:22;3.80;;;2.13;;
11131;SDS011;5620;53.570;9.718;2023-07-22T08:13:50;3.13;;;1.58;;
11131;SDS011;5620;53.570;9.718;2023-07-22T08:16:16;1.88;;;0.90;;
11131;SDS011;5620;53.570;9.718;2023-07-22T08:18:43;3.33;;;1.23;;
11131;SDS011;5620;53.570;9.718;2023-07-22T08:21:09;1.13;;;0.80;;
11131;SDS011;5620;53.570;9.718;2023-07-22T08:23:37;2.53;;;1.52;;
11131;SDS011;5620;53.570;9.718;2023-07-22T08:26:05;3.88;;;0.73;;
11131;SDS011;5620;53.570;9.718;2023-07-22T08:28:31;1.45;;;1.02;;
11131;SDS011;5620;53.570;9.718;2023-07-22T08:30:58;2.17;;;0.63;;
11131;SDS011;5620;53.570;9.718;2023-07-22T08:33:25;5.20;;;1.00;;
11131;SDS011;5620;53.570;9.718;2023-07-22T08:35:53;1.60;;;0.80;;
11131;SDS011;5620;53.570;9.718;2023-07-22T08:38:19;1.10;;;0.80;;
11131;SDS011;5620;53.570;9.718;2023-07-22T08:40:47;1.20;;;0.60;;
11131;SDS011;5620;53.570;9.718;2023-07-22T08:43:15;4.40;;;1.75;;
11131;SDS011;5620;53.570;9.718;2023-07-22T08:45:44;9.77;;;5.95;;
11131;SDS011;5620;53.570;9.718;2023-07-22T08:48:11;6.10;;;3.03;;
11131;SDS011;5620;53.570;9.718;2023-07-22T08:50:52;1.73;;;0.80;;
11131;SDS011;5620;53.570;9.718;2023-07-22T08:53:49;2.35;;;0.95;;
11131;SDS011;5620;53.570;9.718;2023-07-22T08:56:25;1.27;;;0.70;;
11131;SDS011;5620;53.570;9.718;2023-07-22T08:58:52;3.40;;;1.30;;
11131;SDS011;5620;53.570;9.718;2023-07-22T09:01:21;3.20;;;1.17;;
11131;SDS011;5620;53.570;9.718;2023-07-22T09:03:48;0.98;;;0.70;;
11131;SDS011;5620;53.570;9.718;2023-07-22T09:06:15;3.88;;;0.60;;
11131;SDS011;5620;53.570;9.718;2023-07-22T09:08:42;2.42;;;0.75;;
11131;SDS011;5620;53.570;9.718;2023-07-22T09:11:10;1.60;;;0.70;;
11131;SDS011;5620;53.570;9.718;2023-07-22T09:13:36;1.63;;;0.68;;
11131;SDS011;5620;53.570;9.718;2023-07-22T09:16:09;3.05;;;0.80;;
11131;SDS011;5620;53.570;9.718;2023-07-22T09:18:37;0.60;;;0.45;;
11131;SDS011;5620;53.570;9.718;2023-07-22T09:21:05;0.77;;;0.40;;
11131;SDS011;5620;53.570;9.718;2023-07-22T09:23:33;2.80;;;0.40;;
11131;SDS011;5620;53.570;9.718;2023-07-22T09:26:11;2.50;;;0.80;;
11131;SDS011;5620;53.570;9.718;2023-07-22T09:28:56;0.65;;;0.57;;
11131;SDS011;5620;53.570;9.718;2023-07-22T09:31:25;1.67;;;0.75;;
11131;SDS011;5620;53.570;9.718;2023-07-22T09:33:53;2.70;;;0.70;;
11131;SDS011;5620;53.570;9.718;2023-07-22T09:36:20;1.10;;;0.67;;
11131;SDS011;5620;53.570;9.718;2023-07-22T09:38:58;1.08;;;0.73;;
11131;SDS011;5620;53.570;9.718;2023-07-22T09:41:29;0.70;;;0.57;;
11131;SDS011;5620;53.570;9.718;2023-07-22T09:43:56;0.93;;;0.70;;
11131;SDS011;5620;53.570;9.718;2023-07-22T09:46:23;0.93;;;0.90;;
11131;SDS011;5620;53.570;9.718;2023-07-22T09:49:03;1.90;;;0.40;;
11131;SDS011;5620;53.570;9.718;2023-07-22T09:51:40;3.92;;;1.02;;
11131;SDS011;5620;53.570;9.718;2023-07-22T09:54:07;1.98;;;0.77;;
11131;SDS011;5620;53.570;9.718;2023-07-22T09:56:45;0.80;;;0.50;;
11131;SDS011;5620;53.570;9.718;2023-07-22T09:59:14;1.35;;;0.70;;
11131;SDS011;5620;53.570;9.718;2023-07-22T10:01:51;3.40;;;0.40;;
11131;SDS011;5620;53.570;9.718;2023-07-22T10:04:21;0.75;;;0.75;;
11131;SDS011;5620;53.570;9.718;2023-07-22T10:06:50;2.90;;;0.50;;
11131;SDS011;5620;53.570;9.718;2023-07-22T10:09:22;1.10;;;0.40;;
11131;SDS011;5620;53.570;9.718;2023-07-22T10:11:55;0.60;;;0.50;;
11131;SDS011;5620;53.570;9.718;2023-07-22T10:14:22;0.80;;;0.57;;
11131;SDS011;5620;53.570;9.718;2023-07-22T10:16:48;1.30;;;0.50;;
11131;SDS011;5620;53.570;9.718;2023-07-22T10:19:16;1.65;;;0.45;;
11131;SDS011;5620;53.570;9.718;2023-07-22T10:21:42;0.77;;;0.50;;
11131;SDS011;5620;53.570;9.718;2023-07-22T10:24:08;2.88;;;0.60;;
11131;SDS011;5620;53.570;9.718;2023-07-22T10:26:38;1.15;;;0.70;;
11131;SDS011;5620;53.570;9.718;2023-07-22T10:29:06;1.20;;;0.50;;
11131;SDS011;5620;53.570;9.718;2023-07-22T10:31:35;3.37;;;0.60;;
11131;SDS011;5620;53.570;9.718;2023-07-22T10:34:01;2.25;;;0.55;;
11131;SDS011;5620;53.570;9.718;2023-07-22T10:36:29;2.20;;;0.60;;
11131;SDS011;5620;53.570;9.718;2023-07-22T10:38:58;1.45;;;0.57;;
11131;SDS011;5620;53.570;9.718;2023-07-22T10:41:25;1.45;;;0.70;;
11131;SDS011;5620;53.570;9.718;2023-07-22T10:43:56;0.93;;;0.70;;
11131;SDS011;5620;53.570;9.718;2023-07-22T10:49:22;0.60;;;0.50;;
11131;SDS011;5620;53.570;9.718;2023-07-22T10:51:50;1.30;;;0.90;;
11131;SDS011;5620;53.570;9.718;2023-07-22T10:54:39;7.80;;;0.93;;
11131;SDS011;5620;53.570;9.718;2023-07-22T10:59:50;4.40;;;1.10;;
11131;SDS011;5620;53.570;9.718;2023-07-22T11:02:26;2.97;;;1.08;;
11131;SDS011;5620;53.570;9.718;2023-07-22T11:04:58;2.13;;;1.27;;
11131;SDS011;5620;53.570;9.718;2023-07-22T11:07:32;1.73;;;1.48;;
11131;SDS011;5620;53.570;9.718;2023-07-22T11:10:21;2.70;;;1.83;;
11131;SDS011;5620;53.570;9.718;2023-07-22T11:12:47;3.83;;;1.70;;
11131;SDS011;5620;53.570;9.718;2023-07-22T11:15:17;4.80;;;2.08;;
11131;SDS011;5620;53.570;9.718;2023-07-22T11:17:44;3.85;;;1.52;;
11131;SDS011;5620;53.570;9.718;2023-07-22T11:20:12;1.67;;;1.50;;
11131;SDS011;5620;53.570;9.718;2023-07-22T11:22:40;1.40;;;0.90;;
11131;SDS011;5620;53.570;9.718;2023-07-22T11:25:08;1.50;;;1.20;;
11131;SDS011;5620;53.570;9.718;2023-07-22T11:27:35;2.67;;;1.50;;
11131;SDS011;5620;53.570;9.718;2023-07-22T11:30:03;2.00;;;1.80;;
11131;SDS011;5620;53.570;9.718;2023-07-22T11:32:32;2.30;;;1.48;;
11131;SDS011;5620;53.570;9.718;2023-07-22T11:34:58;2.20;;;1.60;;
11131;SDS011;5620;53.570;9.718;2023-07-22T11:37:26;2.28;;;1.27;;
11131;SDS011;5620;53.570;9.718;2023-07-22T11:40:04;3.38;;;2.35;;
11131;SDS011;5620;53.570;9.718;2023-07-22T11:42:33;3.78;;;1.95;;
11131;SDS011;5620;53.570;9.718;2023-07-22T11:44:59;2.75;;;1.55;;
11131;SDS011;5620;53.570;9.718;2023-07-22T11:47:32;5.93;;;4.33;;
11131;SDS011;5620;53.570;9.718;2023-07-22T11:49:59;3.60;;;1.90;;
11131;SDS011;5620;53.570;9.718;2023-07-22T11:52:26;2.92;;;2.67;;
11131;SDS011;5620;53.570;9.718;2023-07-22T11:54:52;3.83;;;1.95;;
11131;SDS011;5620;53.570;9.718;2023-07-22T11:57:24;6.75;;;5.97;;
11131;SDS011;5620;53.570;9.718;2023-07-22T11:59:50;2.40;;;2.20;;
11131;SDS011;5620;53.570;9.718;2023-07-22T12:02:18;3.90;;;3.58;;
11131;SDS011;5620;53.570;9.718;2023-07-22T12:10:02;3.05;;;2.40;;
11131;SDS011;5620;53.570;9.718;2023-07-22T12:12:35;2.63;;;2.17;;
11131;SDS011;5620;53.570;9.718;2023-07-22T12:15:18;3.63;;;2.15;;
11131;SDS011;5620;53.570;9.718;2023-07-22T12:17:57;1.93;;;1.80;;
11131;SDS011;5620;53.570;9.718;2023-07-22T12:20:36;2.28;;;1.90;;
11131;SDS011;5620;53.570;9.718;2023-07-22T12:23:03;2.38;;;2.17;;
11131;SDS011;5620;53.570;9.718;2023-07-22T12:25:29;2.33;;;2.03;;
11131;SDS011;5620;53.570;9.718;2023-07-22T12:27:58;2.47;;;2.28;;
11131;SDS011;5620;53.570;9.718;2023-07-22T12:30:26;4.13;;;3.00;;
11131;SDS011;5620;53.570;9.718;2023-07-22T12:32:54;3.20;;;3.00;;
11131;SDS011;5620;53.570;9.718;2023-07-22T12:35:21;3.40;;;2.72;;
11131;SDS011;5620;53.570;9.718;2023-07-22T12:37:49;5.80;;;3.17;;
11131;SDS011;5620;53.570;9.718;2023-07-22T12:40:15;3.17;;;2.87;;
11131;SDS011;5620;53.570;9.718;2023-07-22T12:42:42;3.53;;;3.22;;
11131;SDS011;5620;53.570;9.718;2023-07-22T12:45:07;3.57;;;2.93;;
11131;SDS011;5620;53.570;9.718;2023-07-22T12:47:35;3.58;;;3.17;;
11131;SDS011;5620;53.570;9.718;2023-07-22T12:50:00;6.10;;;3.88;;
11131;SDS011;5620;53.570;9.718;2023-07-22T12:52:27;5.97;;;3.57;;
11131;SDS011;5620;53.570;9.718;2023-07-22T12:54:54;5.57;;;3.88;;
11131;SDS011;5620;53.570;9.718;2023-07-22T12:57:21;5.00;;;3.90;;
11131;SDS011;5620;53.570;9.718;2023-07-22T12:59:46;4.25;;;3.88;;
11131;SDS011;5620;53.570;9.718;2023-07-22T13:02:15;6.72;;;4.10;;
11131;SDS011;5620;53.570;9.718;2023-07-22T13:04:42;4.40;;;3.85;;
11131;SDS011;5620;53.570;9.718;2023-07-22T13:07:10;4.30;;;3.70;;
11131;SDS011;5620;53.570;9.718;2023-07-22T13:09:38;9.07;;;4.28;;
11131;SDS011;5620;53.570;9.718;2023-07-22T13:12:04;4.55;;;3.92;;
11131;SDS011;5620;53.570;9.718;2023-07-22T13:14:31;6.53;;;3.30;;
11131;SDS011;5620;53.570;9.718;2023-07-22T13:16:59;4.97;;;3.30;;
11131;SDS011;5620;53.570;9.718;2023-07-22T13:19:26;3.47;;;3.17;;
11131;SDS011;5620;53.570;9.718;2023-07-22T13:21:53;7.50;;;3.78;;
11131;SDS011;5620;53.570;9.718;2023-07-22T13:24:21;3.75;;;3.40;;
11131;SDS011;5620;53.570;9.718;2023-07-22T13:26:49;4.15;;;3.75;;
11131;SDS011;5620;53.570;9.718;2023-07-22T13:29:17;4.43;;;4.03;;
11131;SDS011;5620;53.570;9.718;2023-07-22T13:31:43;5.07;;;3.43;;
11131;SDS011;5620;53.570;9.718;2023-07-22T13:34:11;5.55;;;5.05;;
11131;SDS011;5620;53.570;9.718;2023-07-22T13:36:36;3.90;;;3.60;;
11131;SDS011;5620;53.570;9.718;2023-07-22T13:39:04;4.23;;;3.27;;
11131;SDS011;5620;53.570;9.718;2023-07-22T13:41:32;3.40;;;2.95;;
11131;SDS011;5620;53.570;9.718;2023-07-22T13:43:59;4.88;;;3.47;;
11131;SDS011;5620;53.570;9.718;2023-07-22T13:46:24;3.50;;;2.78;;
11131;SDS011;5620;53.570;9.718;2023-07-22T13:48:50;3.23;;;2.90;;
11131;SDS011;5620;53.570;9.718;2023-07-22T13:51:16;4.70;;;2.67;;
11131;SDS011;5620;53.570;9.718;2023-07-22T13:53:43;3.15;;;2.65;;
11131;SDS011;5620;53.570;9.718;2023-07-22T13:56:10;4.17;;;2.70;;
11131;SDS011;5620;53.570;9.718;2023-07-22T13:58:37;3.85;;;3.15;;
11131;SDS011;5620;53.570;9.718;2023-07-22T14:01:04;5.72;;;3.55;;
11131;SDS011;5620;53.570;9.718;2023-07-22T14:03:30;4.63;;;2.53;;
11131;SDS011;5620;53.570;9.718;2023-07-22T14:05:57;4.78;;;2.40;;
11131;SDS011;5620;53.570;9.718;2023-07-22T14:08:25;3.10;;;2.80;;
11131;SDS011;5620;53.570;9.718;2023-07-22T14:10:53;5.75;;;2.22;;
11131;SDS011;5620;53.570;9.718;2023-07-22T14:13:19;2.60;;;2.40;;
11131;SDS011;5620;53.570;9.718;2023-07-22T14:15:46;2.75;;;1.92;;
11131;SDS011;5620;53.570;9.718;2023-07-22T14:18:14;2.10;;;1.42;;
11131;SDS011;5620;53.570;9.718;2023-07-22T14:20:42;2.73;;;1.47;;
11131;SDS011;5620;53.570;9.718;2023-07-22T14:23:11;2.78;;;1.80;;
11131;SDS011;5620;53.570;9.718;2023-07-22T14:25:39;1.70;;;1.38;;
11131;SDS011;5620;53.570;9.718;2023-07-22T14:28:07;2.60;;;1.77;;
11131;SDS011;5620;53.570;9.718;2023-07-22T14:30:34;2.42;;;2.22;;
11131;SDS011;5620;53.570;9.718;2023-07-22T14:33:02;1.83;;;1.70;;
11131;SDS011;5620;53.570;9.718;2023-07-22T14:35:29;2.63;;;1.65;;
11131;SDS011;5620;53.570;9.718;2023-07-22T14:37:55;3.70;;;2.50;;
11131;SDS011;5620;53.570;9.718;2023-07-22T14:40:23;3.20;;;1.90;;
11131;SDS011;5620;53.570;9.718;2023-07-22T14:42:51;3.85;;;2.80;;
11131;SDS011;5620;53.570;9.718;2023-07-22T14:45:17;2.90;;;2.47;;
11131;SDS011;5620;53.570;9.718;2023-07-22T14:47:44;6.23;;;2.40;;
11131;SDS011;5620;53.570;9.718;2023-07-22T14:50:09;5.78;;;3.35;;
11131;SDS011;5620;53.570;9.718;2023-07-22T14:52:37;3.65;;;3.05;;
11131;SDS011;5620;53.570;9.718;2023-07-22T14:55:03;4.68;;;3.13;;
11131;SDS011;5620;53.570;9.718;2023-07-22T14:57:30;2.87;;;2.67;;
11131;SDS011;5620;53.570;9.718;2023-07-22T14:59:58;11.05;;;2.90;;
11131;SDS011;5620;53.570;9.718;2023-07-22T15:02:25;3.10;;;2.88;;
11131;SDS011;5620;53.570;9.718;2023-07-22T15:04:52;3.17;;;2.88;;
11131;SDS011;5620;53.570;9.718;2023-07-22T15:07:19;7.38;;;2.90;;
11131;SDS011;5620;53.570;9.718;2023-07-22T15:09:46;4.20;;;2.57;;
11131;SDS011;5620;53.570;9.718;2023-07-22T15:12:18;2.70;;;2.50;;
11131;SDS011;5620;53.570;9.718;2023-07-22T15:14:43;3.10;;;2.90;;